Raven's Dance — WDF7230 — position and weather

sailwx.info

Track history (hours):
 
Tides and Currents Weather Stations Pressure Air Temp Water Temp Dewpoint Dewpoint Depression Visibility Wind Speed Wind Dir Waves Ship Positions

Raven's Dance

Owner: Lassila, Donald A, Gig Harbor, WA. More information available from US FCC via Universal Licensing System and Coast Guard Vessel Documentation Center.

Last reported at 2015-Oct-28 12:32 UTC. Time now 2016-Feb-13 08:53 UTC.
Position N 29°43' W 116°25'.
Warning: this ship's position is months out of date.

Length 14 m.

Type: Sailing vessel. MMSI: 367482370.

Date/timePositionNaut miles runAvg speedWind from/ knotsBaromVisibWave heightAir tempDewpointWater temp
2015-Oct-28 12:32N 29°43' W 116°25'12 5.9
2015-Oct-28 10:33N 29°53' W 116°30'30 4.6
2015-Oct-28 04:04N 30°21' W 116°42'8 3.0
2015-Oct-28 01:26N 30°29' W 116°42'64 4.9
2015-Oct-27 12:33N 31°31' W 116°58'14 6.6
2015-Oct-27 10:24N 31°45' W 117°00'7 6.4
2015-Oct-27 09:16N 31°53' W 117°01'5 6.4
2015-Oct-27 08:33N 31°57' W 117°02'21 4.6
2015-Oct-27 04:07N 32°17' W 117°06'6 6.3
2015-Oct-27 03:13N 32°23' W 117°09'4 6.5
2015-Oct-27 02:32N 32°27' W 117°09'6 6.6
2015-Oct-27 01:33N 32°34' W 117°11'7 6.7
2015-Oct-27 00:29N 32°40' W 117°14'2 2.4
2015-Oct-26 23:33N 32°43' W 117°14'0 0.0
2015-Oct-26 22:30N 32°43' W 117°14'0 0.0
2015-Oct-26 21:21N 32°43' W 117°14'0 0.0
2015-Oct-26 20:21N 32°43' W 117°14'1 1.5
2015-Oct-26 19:33N 32°43' W 117°13'1 0.8
2015-Oct-26 18:30N 32°43' W 117°14'3 2.9
2015-Oct-26 17:33N 32°40' W 117°14'3 3.1
2015-Oct-26 16:33N 32°43' W 117°13'0 0.3
2015-Oct-26 15:32N 32°43' W 117°13'0 0.0
2015-Oct-26 14:23N 32°43' W 117°13'0 0.0
2015-Oct-26 13:28N 32°43' W 117°13'0 0.0
2015-Oct-26 12:28N 32°43' W 117°13'0 0.0
2015-Oct-26 11:28N 32°43' W 117°13'0 0.0
2015-Oct-26 10:28N 32°43' W 117°13'0 0.0
2015-Oct-26 09:28N 32°43' W 117°13'0 0.0
2015-Oct-26 08:31N 32°43' W 117°13'0 0.0
2015-Oct-26 07:22N 32°43' W 117°13'0 0.0
2015-Oct-26 06:28N 32°43' W 117°13'0 0.0
2015-Oct-26 05:28N 32°43' W 117°13'0 0.0
2015-Oct-26 04:28N 32°43' W 117°13'0 0.0
2015-Oct-26 03:28N 32°43' W 117°13'0 0.0
2015-Oct-26 02:04N 32°43' W 117°13'0 0.0
2015-Oct-26 01:28N 32°43' W 117°13'0 0.0
2015-Oct-26 00:26N 32°43' W 117°13'0 0.0
2015-Oct-25 21:32N 32°43' W 117°13'0 0.0
2015-Oct-25 20:32N 32°43' W 117°13'0 0.0
2015-Oct-25 19:11N 32°43' W 117°13'0 0.0
2015-Oct-25 18:32N 32°43' W 117°13'0 0.0
2015-Oct-25 17:32N 32°43' W 117°13'0 0.0
2015-Oct-25 16:31N 32°43' W 117°13'0 0.0
2015-Oct-25 15:31N 32°43' W 117°13'0 0.0
2015-Oct-25 14:31N 32°43' W 117°13'0 0.0
2015-Oct-25 13:31N 32°43' W 117°13'0 0.0
2015-Oct-25 12:19N 32°43' W 117°13'0 0.0
2015-Oct-25 11:31N 32°43' W 117°13'0 0.0
2015-Oct-25 09:31N 32°43' W 117°13'0 0.0
2015-Oct-25 08:28N 32°43' W 117°13'0 0.0
2015-Oct-25 07:31N 32°43' W 117°13'0 0.0
2015-Oct-25 06:19N 32°43' W 117°13'0 0.0
2015-Oct-25 04:31N 32°43' W 117°13'0 0.0
2015-Oct-25 03:31N 32°43' W 117°13'0 0.0
2015-Oct-25 02:31N 32°43' W 117°13'0 0.0
2015-Oct-25 01:25N 32°43' W 117°13'0 0.0
2015-Oct-25 00:31N 32°43' W 117°13'0 0.0
2015-Oct-24 23:25N 32°43' W 117°13'0 0.0
2015-Oct-24 22:31N 32°43' W 117°13'0 0.0
2015-Oct-24 21:31N 32°43' W 117°13'0 0.0
2015-Oct-24 20:31N 32°43' W 117°13'0 0.0
2015-Oct-24 19:31N 32°43' W 117°13'1 1.5
2015-Oct-24 18:33N 32°44' W 117°12'3 3.0
2015-Oct-24 17:31N 32°41' W 117°10'0 0.0
2015-Oct-24 16:31N 32°41' W 117°10'0 0.0
2015-Oct-24 15:31N 32°41' W 117°10'0 0.0
2015-Oct-24 14:31N 32°41' W 117°10'0 0.0
2015-Oct-24 13:31N 32°41' W 117°10'0 0.0
2015-Oct-24 12:28N 32°41' W 117°10'0 0.0
2015-Oct-24 11:31N 32°41' W 117°10'0 0.0
2015-Oct-24 10:31N 32°41' W 117°10'0 0.0
2015-Oct-24 09:19N 32°41' W 117°10'0 0.0
2015-Oct-24 08:31N 32°41' W 117°10'0 0.0
2015-Oct-24 07:28N 32°41' W 117°10'0 0.0
2015-Oct-24 06:10N 32°41' W 117°10'0 0.0
2015-Oct-24 05:31N 32°41' W 117°10'0 0.0
2015-Oct-24 04:31N 32°41' W 117°10'0 0.0
2015-Oct-24 03:34N 32°41' W 117°10'0 0.0
2015-Oct-24 02:33N 32°41' W 117°10'0 0.0
2015-Oct-24 01:33N 32°41' W 117°10'0 0.0
2015-Oct-24 00:33N 32°41' W 117°10'0 0.0
2015-Oct-23 23:33N 32°41' W 117°10'0 0.0
2015-Oct-23 22:33N 32°41' W 117°10'0 0.0
2015-Oct-23 21:33N 32°41' W 117°10'0 0.0
2015-Oct-23 20:30N 32°41' W 117°10'0 0.0
2015-Oct-23 19:33N 32°41' W 117°10'0 0.0
2015-Oct-23 18:33N 32°41' W 117°10'0 0.0
2015-Oct-23 17:33N 32°41' W 117°10'0 0.0
2015-Oct-23 16:30N 32°41' W 117°10'0 0.0
2015-Oct-23 15:27N 32°41' W 117°10'0 0.0
2015-Oct-23 14:30N 32°41' W 117°10'0 0.0
2015-Oct-23 13:33N 32°41' W 117°10'0 0.0
2015-Oct-23 12:30N 32°41' W 117°10'0 0.0
2015-Oct-23 11:33N 32°41' W 117°10'0 0.0
2015-Oct-23 10:30N 32°41' W 117°10'0 0.0
2015-Oct-23 09:30N 32°41' W 117°10'0 0.0
2015-Oct-23 08:33N 32°41' W 117°10'0 0.0
2015-Oct-23 07:30N 32°41' W 117°10'0 0.0
2015-Oct-23 06:30N 32°41' W 117°10'0 0.0
2015-Oct-23 05:29N 32°41' W 117°10'0 0.0
2015-Oct-23 04:32N 32°41' W 117°10'0 0.0
2015-Oct-23 03:29N 32°41' W 117°10'0 0.0
2015-Oct-23 02:32N 32°41' W 117°10'0 0.0
2015-Oct-23 01:32N 32°41' W 117°10'0 0.0
2015-Oct-23 00:11N 32°41' W 117°10'0 0.0
2015-Oct-22 23:32N 32°41' W 117°10'0 0.0
2015-Oct-22 22:32N 32°41' W 117°10'0 0.0
2015-Oct-22 21:32N 32°41' W 117°10'0 0.0
2015-Oct-22 20:29N 32°41' W 117°10'0 0.0
2015-Oct-22 19:29N 32°41' W 117°10'0 0.0
2015-Oct-22 18:32N 32°41' W 117°10'0 0.0
2015-Oct-22 17:32N 32°41' W 117°10'0 0.0
2015-Oct-22 16:23N 32°41' W 117°10'0 0.0
2015-Oct-22 15:32N 32°41' W 117°10'0 0.0
2015-Oct-22 14:29N 32°41' W 117°10'0 0.0
2015-Oct-22 13:29N 32°41' W 117°10'0 0.0
2015-Oct-22 12:11N 32°41' W 117°10'0 0.0
2015-Oct-22 11:32N 32°41' W 117°10'0 0.0
2015-Oct-22 10:29N 32°41' W 117°10'0 0.0
2015-Oct-22 09:29N 32°41' W 117°10'0 0.0
2015-Oct-22 08:32N 32°41' W 117°10'0 0.0
2015-Oct-22 07:29N 32°41' W 117°10'0 0.0
2015-Oct-22 06:32N 32°41' W 117°10'0 0.0
2015-Oct-22 05:32N 32°41' W 117°10'0 0.0
2015-Oct-22 04:32N 32°41' W 117°10'0 0.0
2015-Oct-22 03:32N 32°41' W 117°10'0 0.0
2015-Oct-22 02:32N 32°41' W 117°10'0 0.0
2015-Oct-22 01:32N 32°41' W 117°10'0 0.0
2015-Oct-22 00:32N 32°41' W 117°10'0 0.0
2015-Oct-21 23:32N 32°41' W 117°10'0 0.0
2015-Oct-21 22:29N 32°41' W 117°10'0 0.0
2015-Oct-21 21:32N 32°41' W 117°10'0 0.0
2015-Oct-21 20:28N 32°41' W 117°10'0 0.0
2015-Oct-21 19:31N 32°41' W 117°10'0 0.0
2015-Oct-21 18:32N 32°41' W 117°10'0 0.0
2015-Oct-21 17:28N 32°41' W 117°10'0 0.0
2015-Oct-21 16:31N 32°41' W 117°10'0 0.0
2015-Oct-21 15:22N 32°41' W 117°10'0 0.0
2015-Oct-21 14:28N 32°41' W 117°10'0 0.0
2015-Oct-21 13:28N 32°41' W 117°10'0 0.0
2015-Oct-21 12:28N 32°41' W 117°10'0 0.0
2015-Oct-21 11:28N 32°41' W 117°10'0 0.0
2015-Oct-21 10:28N 32°41' W 117°10'0 0.0
2015-Oct-21 09:28N 32°41' W 117°10'0 0.0
2015-Oct-21 08:28N 32°41' W 117°10'0 0.0
2015-Oct-21 07:28N 32°41' W 117°10'0 0.0
2015-Oct-21 06:28N 32°41' W 117°10'0 0.0
2015-Oct-21 05:28N 32°41' W 117°10'0 0.0
2015-Oct-21 04:31N 32°41' W 117°10'0 0.0
2015-Oct-21 03:31N 32°41' W 117°10'0 0.0
2015-Oct-21 02:22N 32°41' W 117°10'0 0.0
2015-Oct-21 01:31N 32°41' W 117°10'0 0.0
2015-Oct-21 00:28N 32°41' W 117°10'0 0.0
2015-Oct-20 23:28N 32°41' W 117°10'0 0.0
2015-Oct-20 22:31N 32°41' W 117°10'0 0.0
2015-Oct-20 21:31N 32°41' W 117°10'0 0.0
2015-Oct-20 20:31N 32°41' W 117°10'0 0.0
2015-Oct-20 19:31N 32°41' W 117°10'0 0.0
2015-Oct-20 18:31N 32°41' W 117°10'0 0.0
2015-Oct-20 17:28N 32°41' W 117°10'2 2.3
2015-Oct-20 16:33N 32°43' W 117°11'3 3.5
2015-Oct-20 15:33N 32°40' W 117°14'3 3.2
2015-Oct-20 14:33N 32°39' W 117°17'4 4.4
2015-Oct-20 13:33N 32°41' W 117°21'4 4.4
2015-Oct-20 12:33N 32°43' W 117°26'4 4.4
2015-Oct-20 11:33N 32°46' W 117°30'4 4.2
2015-Oct-20 10:33N 32°48' W 117°35'4 3.9
2015-Oct-20 09:33N 32°50' W 117°39'4 4.3
2015-Oct-20 08:33N 32°52' W 117°43'5 4.9
2015-Oct-20 07:33N 32°54' W 117°49'5 4.8
2015-Oct-20 06:33N 32°55' W 117°54'4 3.5
2015-Oct-20 05:33N 32°58' W 117°56'4 4.2
2015-Oct-20 04:33N 33°02' W 117°59'5 4.6
2015-Oct-20 03:32N 33°06' W 118°02'5 5.2
2015-Oct-20 02:33N 33°10' W 118°05'5 5.1
2015-Oct-20 01:30N 33°15' W 118°08'  
Track history (hours):
 
Tides and Currents Weather Stations Pressure Air Temp Water Temp Dewpoint Dewpoint Depression Visibility Wind Speed Wind Dir Waves Ship Positions

Raven's Dance

Owner: Lassila, Donald A, Gig Harbor, WA. More information available from US FCC via Universal Licensing System and Coast Guard Vessel Documentation Center.

Last reported at 2015-Oct-28 12:32 UTC. Time now 2016-Feb-13 08:53 UTC.
Position N 29°43' W 116°25'.
Warning: this ship's position is months out of date.

Length 14 m.

Type: Sailing vessel. MMSI: 367482370.

Date/timePositionNaut miles runAvg speedWind from/ knotsBaromVisibWave heightAir tempDewpointWater temp
2015-Oct-28 12:32N 29°43' W 116°25'12 5.9
2015-Oct-28 10:33N 29°53' W 116°30'30 4.6
2015-Oct-28 04:04N 30°21' W 116°42'8 3.0
2015-Oct-28 01:26N 30°29' W 116°42'64 4.9
2015-Oct-27 12:33N 31°31' W 116°58'14 6.6
2015-Oct-27 10:24N 31°45' W 117°00'7 6.4
2015-Oct-27 09:16N 31°53' W 117°01'5 6.4
2015-Oct-27 08:33N 31°57' W 117°02'21 4.6
2015-Oct-27 04:07N 32°17' W 117°06'6 6.3
2015-Oct-27 03:13N 32°23' W 117°09'4 6.5
2015-Oct-27 02:32N 32°27' W 117°09'6 6.6
2015-Oct-27 01:33N 32°34' W 117°11'7 6.7
2015-Oct-27 00:29N 32°40' W 117°14'2 2.4
2015-Oct-26 23:33N 32°43' W 117°14'0 0.0
2015-Oct-26 22:30N 32°43' W 117°14'0 0.0
2015-Oct-26 21:21N 32°43' W 117°14'0 0.0
2015-Oct-26 20:21N 32°43' W 117°14'1 1.5
2015-Oct-26 19:33N 32°43' W 117°13'1 0.8
2015-Oct-26 18:30N 32°43' W 117°14'3 2.9
2015-Oct-26 17:33N 32°40' W 117°14'3 3.1
2015-Oct-26 16:33N 32°43' W 117°13'0 0.3
2015-Oct-26 15:32N 32°43' W 117°13'0 0.0
2015-Oct-26 14:23N 32°43' W 117°13'0 0.0
2015-Oct-26 13:28N 32°43' W 117°13'0 0.0
2015-Oct-26 12:28N 32°43' W 117°13'0 0.0
2015-Oct-26 11:28N 32°43' W 117°13'0 0.0
2015-Oct-26 10:28N 32°43' W 117°13'0 0.0
2015-Oct-26 09:28N 32°43' W 117°13'0 0.0
2015-Oct-26 08:31N 32°43' W 117°13'0 0.0
2015-Oct-26 07:22N 32°43' W 117°13'0 0.0
2015-Oct-26 06:28N 32°43' W 117°13'0 0.0
2015-Oct-26 05:28N 32°43' W 117°13'0 0.0
2015-Oct-26 04:28N 32°43' W 117°13'0 0.0
2015-Oct-26 03:28N 32°43' W 117°13'0 0.0
2015-Oct-26 02:04N 32°43' W 117°13'0 0.0
2015-Oct-26 01:28N 32°43' W 117°13'0 0.0
2015-Oct-26 00:26N 32°43' W 117°13'0 0.0
2015-Oct-25 21:32N 32°43' W 117°13'0 0.0
2015-Oct-25 20:32N 32°43' W 117°13'0 0.0
2015-Oct-25 19:11N 32°43' W 117°13'0 0.0
2015-Oct-25 18:32N 32°43' W 117°13'0 0.0
2015-Oct-25 17:32N 32°43' W 117°13'0 0.0
2015-Oct-25 16:31N 32°43' W 117°13'0 0.0
2015-Oct-25 15:31N 32°43' W 117°13'0 0.0
2015-Oct-25 14:31N 32°43' W 117°13'0 0.0
2015-Oct-25 13:31N 32°43' W 117°13'0 0.0
2015-Oct-25 12:19N 32°43' W 117°13'0 0.0
2015-Oct-25 11:31N 32°43' W 117°13'0 0.0
2015-Oct-25 09:31N 32°43' W 117°13'0 0.0
2015-Oct-25 08:28N 32°43' W 117°13'0 0.0
2015-Oct-25 07:31N 32°43' W 117°13'0 0.0
2015-Oct-25 06:19N 32°43' W 117°13'0 0.0
2015-Oct-25 04:31N 32°43' W 117°13'0 0.0
2015-Oct-25 03:31N 32°43' W 117°13'0 0.0
2015-Oct-25 02:31N 32°43' W 117°13'0 0.0
2015-Oct-25 01:25N 32°43' W 117°13'0 0.0
2015-Oct-25 00:31N 32°43' W 117°13'0 0.0
2015-Oct-24 23:25N 32°43' W 117°13'0 0.0
2015-Oct-24 22:31N 32°43' W 117°13'0 0.0
2015-Oct-24 21:31N 32°43' W 117°13'0 0.0
2015-Oct-24 20:31N 32°43' W 117°13'0 0.0
2015-Oct-24 19:31N 32°43' W 117°13'1 1.5
2015-Oct-24 18:33N 32°44' W 117°12'3 3.0
2015-Oct-24 17:31N 32°41' W 117°10'0 0.0
2015-Oct-24 16:31N 32°41' W 117°10'0 0.0
2015-Oct-24 15:31N 32°41' W 117°10'0 0.0
2015-Oct-24 14:31N 32°41' W 117°10'0 0.0
2015-Oct-24 13:31N 32°41' W 117°10'0 0.0
2015-Oct-24 12:28N 32°41' W 117°10'0 0.0
2015-Oct-24 11:31N 32°41' W 117°10'0 0.0
2015-Oct-24 10:31N 32°41' W 117°10'0 0.0
2015-Oct-24 09:19N 32°41' W 117°10'0 0.0
2015-Oct-24 08:31N 32°41' W 117°10'0 0.0
2015-Oct-24 07:28N 32°41' W 117°10'0 0.0
2015-Oct-24 06:10N 32°41' W 117°10'0 0.0
2015-Oct-24 05:31N 32°41' W 117°10'0 0.0
2015-Oct-24 04:31N 32°41' W 117°10'0 0.0
2015-Oct-24 03:34N 32°41' W 117°10'0 0.0
2015-Oct-24 02:33N 32°41' W 117°10'0 0.0
2015-Oct-24 01:33N 32°41' W 117°10'0 0.0
2015-Oct-24 00:33N 32°41' W 117°10'0 0.0
2015-Oct-23 23:33N 32°41' W 117°10'0 0.0
2015-Oct-23 22:33N 32°41' W 117°10'0 0.0
2015-Oct-23 21:33N 32°41' W 117°10'0 0.0
2015-Oct-23 20:30N 32°41' W 117°10'0 0.0
2015-Oct-23 19:33N 32°41' W 117°10'0 0.0
2015-Oct-23 18:33N 32°41' W 117°10'0 0.0
2015-Oct-23 17:33N 32°41' W 117°10'0 0.0
2015-Oct-23 16:30N 32°41' W 117°10'0 0.0
2015-Oct-23 15:27N 32°41' W 117°10'0 0.0
2015-Oct-23 14:30N 32°41' W 117°10'0 0.0
2015-Oct-23 13:33N 32°41' W 117°10'0 0.0
2015-Oct-23 12:30N 32°41' W 117°10'0 0.0
2015-Oct-23 11:33N 32°41' W 117°10'0 0.0
2015-Oct-23 10:30N 32°41' W 117°10'0 0.0
2015-Oct-23 09:30N 32°41' W 117°10'0 0.0
2015-Oct-23 08:33N 32°41' W 117°10'0 0.0
2015-Oct-23 07:30N 32°41' W 117°10'0 0.0
2015-Oct-23 06:30N 32°41' W 117°10'0 0.0
2015-Oct-23 05:29N 32°41' W 117°10'0 0.0
2015-Oct-23 04:32N 32°41' W 117°10'0 0.0
2015-Oct-23 03:29N 32°41' W 117°10'0 0.0
2015-Oct-23 02:32N 32°41' W 117°10'0 0.0
2015-Oct-23 01:32N 32°41' W 117°10'0 0.0
2015-Oct-23 00:11N 32°41' W 117°10'0 0.0
2015-Oct-22 23:32N 32°41' W 117°10'0 0.0
2015-Oct-22 22:32N 32°41' W 117°10'0 0.0
2015-Oct-22 21:32N 32°41' W 117°10'0 0.0
2015-Oct-22 20:29N 32°41' W 117°10'0 0.0
2015-Oct-22 19:29N 32°41' W 117°10'0 0.0
2015-Oct-22 18:32N 32°41' W 117°10'0 0.0
2015-Oct-22 17:32N 32°41' W 117°10'0 0.0
2015-Oct-22 16:23N 32°41' W 117°10'0 0.0
2015-Oct-22 15:32N 32°41' W 117°10'0 0.0
2015-Oct-22 14:29N 32°41' W 117°10'0 0.0
2015-Oct-22 13:29N 32°41' W 117°10'0 0.0
2015-Oct-22 12:11N 32°41' W 117°10'0 0.0
2015-Oct-22 11:32N 32°41' W 117°10'0 0.0
2015-Oct-22 10:29N 32°41' W 117°10'0 0.0
2015-Oct-22 09:29N 32°41' W 117°10'0 0.0
2015-Oct-22 08:32N 32°41' W 117°10'0 0.0
2015-Oct-22 07:29N 32°41' W 117°10'0 0.0
2015-Oct-22 06:32N 32°41' W 117°10'0 0.0
2015-Oct-22 05:32N 32°41' W 117°10'0 0.0
2015-Oct-22 04:32N 32°41' W 117°10'0 0.0
2015-Oct-22 03:32N 32°41' W 117°10'0 0.0
2015-Oct-22 02:32N 32°41' W 117°10'0 0.0
2015-Oct-22 01:32N 32°41' W 117°10'0 0.0
2015-Oct-22 00:32N 32°41' W 117°10'0 0.0
2015-Oct-21 23:32N 32°41' W 117°10'0 0.0
2015-Oct-21 22:29N 32°41' W 117°10'0 0.0
2015-Oct-21 21:32N 32°41' W 117°10'0 0.0
2015-Oct-21 20:28N 32°41' W 117°10'0 0.0
2015-Oct-21 19:31N 32°41' W 117°10'0 0.0
2015-Oct-21 18:32N 32°41' W 117°10'0 0.0
2015-Oct-21 17:28N 32°41' W 117°10'0 0.0
2015-Oct-21 16:31N 32°41' W 117°10'0 0.0
2015-Oct-21 15:22N 32°41' W 117°10'0 0.0
2015-Oct-21 14:28N 32°41' W 117°10'0 0.0
2015-Oct-21 13:28N 32°41' W 117°10'0 0.0
2015-Oct-21 12:28N 32°41' W 117°10'0 0.0
2015-Oct-21 11:28N 32°41' W 117°10'0 0.0
2015-Oct-21 10:28N 32°41' W 117°10'0 0.0
2015-Oct-21 09:28N 32°41' W 117°10'0 0.0
2015-Oct-21 08:28N 32°41' W 117°10'0 0.0
2015-Oct-21 07:28N 32°41' W 117°10'0 0.0
2015-Oct-21 06:28N 32°41' W 117°10'0 0.0
2015-Oct-21 05:28N 32°41' W 117°10'0 0.0
2015-Oct-21 04:31N 32°41' W 117°10'0 0.0
2015-Oct-21 03:31N 32°41' W 117°10'0 0.0
2015-Oct-21 02:22N 32°41' W 117°10'0 0.0
2015-Oct-21 01:31N 32°41' W 117°10'0 0.0
2015-Oct-21 00:28N 32°41' W 117°10'0 0.0
2015-Oct-20 23:28N 32°41' W 117°10'0 0.0
2015-Oct-20 22:31N 32°41' W 117°10'0 0.0
2015-Oct-20 21:31N 32°41' W 117°10'0 0.0
2015-Oct-20 20:31N 32°41' W 117°10'0 0.0
2015-Oct-20 19:31N 32°41' W 117°10'0 0.0
2015-Oct-20 18:31N 32°41' W 117°10'0 0.0
2015-Oct-20 17:28N 32°41' W 117°10'2 2.3
2015-Oct-20 16:33N 32°43' W 117°11'3 3.5
2015-Oct-20 15:33N 32°40' W 117°14'3 3.2
2015-Oct-20 14:33N 32°39' W 117°17'4 4.4
2015-Oct-20 13:33N 32°41' W 117°21'4 4.4
2015-Oct-20 12:33N 32°43' W 117°26'4 4.4
2015-Oct-20 11:33N 32°46' W 117°30'4 4.2
2015-Oct-20 10:33N 32°48' W 117°35'4 3.9
2015-Oct-20 09:33N 32°50' W 117°39'4 4.3
2015-Oct-20 08:33N 32°52' W 117°43'5 4.9
2015-Oct-20 07:33N 32°54' W 117°49'5 4.8
2015-Oct-20 06:33N 32°55' W 117°54'4 3.5
2015-Oct-20 05:33N 32°58' W 117°56'4 4.2
2015-Oct-20 04:33N 33°02' W 117°59'5 4.6
2015-Oct-20 03:32N 33°06' W 118°02'5 5.2
2015-Oct-20 02:33N 33°10' W 118°05'5 5.1
2015-Oct-20 01:30N 33°15' W 118°08'  

Dump ship's entire track history